createdAt,value
2018-12-26T00:00:11.809Z,0.00
2018-12-26T00:01:11.776Z,0.00
2018-12-26T00:02:11.746Z,0.00
2018-12-26T00:03:11.730Z,0.00
2018-12-26T00:04:11.673Z,0.00
2018-12-26T00:05:11.676Z,0.00
2018-12-26T00:06:11.733Z,0.00
2018-12-26T00:07:11.706Z,0.00
2018-12-26T00:08:13.610Z,0.00
2018-12-26T00:09:11.603Z,0.00
2018-12-26T00:10:11.584Z,0.00
2018-12-26T00:11:11.634Z,0.00
2018-12-26T00:12:11.576Z,0.00
2018-12-26T00:13:11.627Z,0.00
2018-12-26T00:14:11.556Z,0.00
2018-12-26T00:15:12.329Z,0.00
2018-12-26T00:16:19.874Z,0.00
2018-12-26T00:19:39.595Z,0.00
2018-12-26T00:20:39.037Z,0.00
2018-12-26T00:21:39.148Z,0.00
2018-12-26T00:22:39.071Z,0.00
2018-12-26T00:23:39.165Z,0.00
2018-12-26T00:24:39.150Z,0.00
2018-12-26T00:25:39.013Z,0.00
2018-12-26T00:26:48.385Z,0.00
2018-12-26T00:27:38.966Z,0.00
2018-12-26T00:28:38.976Z,0.00
2018-12-26T00:29:38.937Z,0.00
2018-12-26T00:30:39.051Z,0.00
2018-12-26T00:31:38.977Z,0.00
2018-12-26T00:32:38.908Z,0.00
2018-12-26T00:33:38.907Z,0.00
2018-12-26T00:34:38.919Z,0.00
2018-12-26T00:35:38.912Z,0.00
2018-12-26T00:36:38.870Z,0.00
2018-12-26T00:37:38.879Z,0.00
2018-12-26T00:38:38.865Z,0.00
2018-12-26T00:39:38.963Z,0.00
2018-12-26T00:40:38.841Z,0.00
2018-12-26T00:41:38.933Z,0.00
2018-12-26T00:42:38.847Z,0.00
2018-12-26T00:43:38.805Z,0.00
2018-12-26T00:44:38.807Z,0.00
2018-12-26T00:45:38.794Z,0.00
2018-12-26T00:46:38.832Z,0.00
2018-12-26T00:47:38.802Z,0.00
2018-12-26T00:48:38.797Z,0.00
2018-12-26T00:49:38.724Z,0.00
2018-12-26T00:50:38.736Z,0.00
2018-12-26T00:51:38.754Z,0.00
2018-12-26T00:52:38.839Z,0.00
2018-12-26T00:53:38.813Z,0.00
2018-12-26T00:54:38.697Z,0.00
2018-12-26T00:55:38.665Z,0.00
2018-12-26T00:56:38.676Z,0.00
2018-12-26T00:57:39.431Z,0.00
2018-12-26T00:58:38.679Z,0.00
2018-12-26T00:59:38.666Z,0.00
2018-12-26T01:00:38.638Z,0.00
2018-12-26T01:01:38.641Z,0.00
2018-12-26T01:02:38.674Z,0.00
2018-12-26T01:03:38.591Z,0.00
2018-12-26T01:04:38.643Z,0.00
2018-12-26T01:05:38.557Z,0.00
2018-12-26T01:06:39.458Z,0.00
2018-12-26T01:07:38.553Z,0.00
2018-12-26T01:08:38.541Z,0.00
2018-12-26T01:09:38.520Z,0.00
2018-12-26T01:10:38.558Z,0.00
2018-12-26T01:11:38.526Z,0.00
2018-12-26T01:12:38.516Z,0.00
2018-12-26T01:13:38.550Z,0.00
2018-12-26T01:14:38.483Z,0.00
2018-12-26T01:15:38.569Z,0.00
2018-12-26T01:16:38.513Z,0.00
2018-12-26T01:17:38.516Z,0.00
2018-12-26T01:18:38.419Z,0.00
2018-12-26T01:19:38.404Z,0.00
2018-12-26T01:20:38.428Z,0.00
2018-12-26T01:21:38.411Z,0.00
2018-12-26T01:22:38.467Z,0.00
2018-12-26T01:23:38.359Z,0.00
2018-12-26T01:24:38.378Z,0.00
2018-12-26T01:25:38.386Z,0.00
2018-12-26T01:26:38.392Z,0.00
2018-12-26T01:27:38.346Z,0.00
2018-12-26T01:28:38.351Z,0.00
2018-12-26T01:29:38.336Z,0.00
2018-12-26T01:30:38.359Z,0.00
2018-12-26T01:31:38.327Z,0.00
2018-12-26T01:32:38.290Z,0.00
2018-12-26T01:33:38.297Z,0.00
2018-12-26T01:34:38.260Z,0.00
2018-12-26T01:35:38.246Z,0.00
2018-12-26T01:36:38.284Z,0.00
2018-12-26T01:37:38.266Z,0.00
2018-12-26T01:38:38.221Z,0.00
2018-12-26T01:39:38.199Z,0.00
2018-12-26T01:40:38.187Z,0.00
2018-12-26T01:41:38.216Z,0.00
2018-12-26T01:42:38.193Z,0.00
2018-12-26T01:43:38.159Z,0.00
2018-12-26T01:44:38.186Z,0.00
2018-12-26T01:45:38.166Z,0.00
2018-12-26T01:46:38.162Z,0.00
2018-12-26T01:47:38.111Z,0.00
2018-12-26T01:48:38.113Z,0.00
2018-12-26T01:49:38.104Z,0.00
2018-12-26T01:50:38.111Z,0.00
2018-12-26T01:51:38.091Z,0.00
2018-12-26T01:52:38.083Z,0.00
2018-12-26T01:53:38.075Z,0.00
2018-12-26T01:54:38.087Z,0.00
2018-12-26T01:55:38.032Z,0.00
2018-12-26T01:56:38.057Z,0.00
2018-12-26T01:57:38.034Z,0.00
2018-12-26T01:58:38.044Z,0.00
2018-12-26T01:59:38.859Z,0.00
2018-12-26T02:00:38.065Z,0.00
2018-12-26T02:01:37.951Z,0.00
2018-12-26T02:02:38.063Z,0.00
2018-12-26T02:03:37.979Z,0.00
2018-12-26T02:04:37.938Z,0.00
2018-12-26T02:05:37.937Z,0.00
2018-12-26T02:06:37.975Z,0.00
2018-12-26T02:07:37.908Z,0.00
2018-12-26T02:08:37.963Z,0.00
2018-12-26T02:09:37.881Z,0.00
2018-12-26T02:10:37.889Z,0.00
2018-12-26T02:11:37.981Z,0.00
2018-12-26T02:12:37.892Z,0.00
2018-12-26T02:13:37.875Z,0.00
2018-12-26T02:14:37.886Z,0.00
2018-12-26T02:15:37.825Z,0.00
2018-12-26T02:16:37.850Z,0.00
2018-12-26T02:17:38.451Z,0.00
2018-12-26T02:18:37.779Z,0.00
2018-12-26T02:19:37.756Z,0.00
2018-12-26T02:20:37.778Z,0.00
2018-12-26T02:21:37.746Z,0.00
2018-12-26T02:22:37.851Z,0.00
2018-12-26T02:23:37.725Z,0.00
2018-12-26T02:24:37.715Z,0.00
2018-12-26T02:25:37.723Z,0.00
2018-12-26T02:26:37.713Z,0.00
2018-12-26T02:27:37.693Z,0.00
2018-12-26T02:28:37.723Z,0.00
2018-12-26T02:29:37.686Z,0.00
2018-12-26T02:30:37.683Z,0.00
2018-12-26T02:31:37.634Z,0.00
2018-12-26T02:32:37.638Z,0.00
2018-12-26T02:33:37.627Z,0.00
2018-12-26T02:34:37.641Z,0.00
2018-12-26T02:35:37.657Z,0.00
2018-12-26T02:36:37.623Z,0.00
2018-12-26T02:37:37.606Z,0.00
2018-12-26T02:38:38.463Z,0.00
2018-12-26T02:39:37.610Z,0.00
2018-12-26T02:40:37.561Z,0.00
2018-12-26T02:41:46.982Z,0.00
2018-12-26T02:42:37.518Z,0.00
2018-12-26T02:43:37.517Z,0.00
2018-12-26T02:44:37.512Z,0.00
2018-12-26T02:45:37.560Z,0.00
2018-12-26T02:47:40.409Z,0.00
2018-12-26T02:48:49.607Z,0.00
2018-12-26T02:49:49.654Z,0.00
2018-12-26T02:50:40.522Z,0.00
2018-12-26T02:51:40.394Z,0.00
2018-12-26T02:52:40.371Z,0.00
2018-12-26T02:53:49.178Z,0.00
2018-12-26T02:54:40.348Z,0.00
2018-12-26T02:55:40.324Z,0.00
2018-12-26T02:56:46.557Z,0.00
2018-12-26T02:57:41.308Z,0.00
2018-12-26T02:58:40.325Z,0.00
2018-12-26T02:59:40.350Z,0.00
2018-12-26T03:00:40.256Z,0.00
2018-12-26T03:01:40.273Z,0.00
2018-12-26T03:02:40.262Z,0.00
2018-12-26T03:03:40.264Z,0.00
2018-12-26T03:04:40.214Z,0.00
2018-12-26T03:05:40.275Z,0.00
2018-12-26T03:06:40.215Z,0.00
2018-12-26T03:07:40.187Z,0.00
2018-12-26T03:08:40.198Z,0.00
2018-12-26T03:09:40.196Z,0.00
2018-12-26T03:10:40.157Z,0.00
2018-12-26T03:11:40.231Z,0.00
2018-12-26T03:12:40.148Z,0.00
2018-12-26T03:13:40.129Z,0.00
2018-12-26T03:14:40.181Z,0.00
2018-12-26T03:15:40.126Z,0.00
2018-12-26T03:16:40.106Z,0.00
2018-12-26T03:17:40.100Z,0.00
2018-12-26T03:18:40.092Z,0.00
2018-12-26T03:19:40.073Z,0.00
2018-12-26T03:20:40.104Z,0.00
2018-12-26T03:21:40.059Z,0.00
2018-12-26T03:22:40.040Z,0.00
2018-12-26T03:23:40.035Z,0.00
2018-12-26T03:24:40.038Z,0.00
2018-12-26T03:25:40.054Z,0.00
2018-12-26T03:26:40.047Z,0.00
2018-12-26T03:27:40.017Z,0.00
2018-12-26T03:28:39.978Z,0.00
2018-12-26T03:29:40.025Z,0.00
2018-12-26T03:30:39.992Z,0.00
2018-12-26T03:31:39.976Z,0.00
2018-12-26T03:32:39.927Z,0.00
2018-12-26T03:33:39.962Z,0.00
2018-12-26T03:34:39.905Z,0.00
2018-12-26T03:35:39.912Z,0.00
2018-12-26T03:36:39.924Z,0.00
2018-12-26T03:37:39.909Z,0.00
2018-12-26T03:38:39.868Z,0.00
2018-12-26T03:39:39.858Z,0.00
2018-12-26T03:40:39.842Z,0.00
2018-12-26T03:41:39.840Z,0.00
2018-12-26T03:42:39.854Z,0.00
2018-12-26T03:43:39.825Z,0.00
2018-12-26T03:44:39.879Z,0.00
2018-12-26T03:45:39.800Z,0.00
2018-12-26T03:46:39.775Z,0.00
2018-12-26T03:47:39.766Z,0.00
2018-12-26T03:48:40.591Z,0.00
2018-12-26T03:49:39.786Z,0.00
2018-12-26T03:50:39.734Z,0.00
2018-12-26T03:51:39.721Z,0.00
2018-12-26T03:52:39.711Z,0.00
2018-12-26T03:53:39.725Z,0.00
2018-12-26T03:54:39.724Z,0.00
2018-12-26T03:55:39.690Z,0.00
2018-12-26T03:56:39.680Z,0.00
2018-12-26T03:57:39.659Z,0.00
2018-12-26T03:58:39.824Z,0.00
2018-12-26T03:59:39.639Z,0.00
2018-12-26T04:00:39.628Z,0.00
2018-12-26T04:01:39.615Z,0.00
2018-12-26T04:02:39.630Z,0.00
2018-12-26T04:03:39.696Z,0.00
2018-12-26T04:04:39.650Z,0.00
2018-12-26T04:05:39.578Z,0.00
2018-12-26T04:06:39.612Z,0.00
2018-12-26T04:07:39.531Z,0.00
2018-12-26T04:08:39.540Z,0.00
2018-12-26T04:09:39.541Z,0.00
2018-12-26T04:10:39.547Z,0.00
2018-12-26T04:11:39.530Z,0.00
2018-12-26T04:12:39.510Z,0.00
2018-12-26T04:13:39.514Z,0.00
2018-12-26T04:14:39.477Z,0.00
2018-12-26T04:15:39.491Z,0.00
2018-12-26T04:16:39.482Z,0.00
2018-12-26T04:17:39.450Z,0.00
2018-12-26T04:18:39.455Z,0.00
2018-12-26T04:19:39.457Z,0.00
2018-12-26T04:20:39.410Z,0.00
2018-12-26T04:21:39.416Z,0.00
2018-12-26T04:22:39.462Z,0.00
2018-12-26T04:23:39.384Z,0.00
2018-12-26T04:24:39.382Z,0.00
2018-12-26T04:25:39.450Z,0.00
2018-12-26T04:26:39.343Z,0.00
2018-12-26T04:27:39.343Z,0.00
2018-12-26T04:28:39.337Z,0.00
2018-12-26T04:29:39.334Z,0.00
2018-12-26T04:30:39.330Z,0.00
2018-12-26T04:31:39.292Z,0.00
2018-12-26T04:32:39.282Z,0.00
2018-12-26T04:33:39.287Z,0.00
2018-12-26T04:34:39.277Z,0.00
2018-12-26T04:35:39.273Z,0.00
2018-12-26T04:36:39.280Z,0.00
2018-12-26T04:37:39.240Z,0.00
2018-12-26T04:38:39.220Z,0.00
2018-12-26T04:39:39.231Z,0.00
2018-12-26T04:40:39.206Z,0.00
2018-12-26T04:41:39.216Z,0.00
2018-12-26T04:42:39.206Z,0.00
2018-12-26T04:43:39.185Z,0.00
2018-12-26T04:44:39.223Z,0.00
2018-12-26T04:45:39.237Z,0.00
2018-12-26T04:46:39.143Z,0.00
2018-12-26T04:47:39.180Z,0.00
2018-12-26T04:48:39.154Z,0.00
2018-12-26T04:49:39.130Z,0.00
2018-12-26T04:50:39.105Z,0.00
2018-12-26T04:51:39.080Z,0.00
2018-12-26T04:52:39.075Z,0.00
2018-12-26T04:53:39.101Z,0.00
2018-12-26T04:54:39.038Z,0.00
2018-12-26T04:55:39.043Z,0.00
2018-12-26T04:56:39.052Z,0.00
2018-12-26T04:57:39.045Z,0.00
2018-12-26T04:58:39.117Z,0.00
2018-12-26T04:59:39.002Z,0.00
2018-12-26T05:00:38.975Z,0.00
2018-12-26T05:01:39.015Z,0.00
2018-12-26T05:02:38.956Z,0.00
2018-12-26T05:03:38.969Z,0.00
2018-12-26T05:04:38.977Z,0.00
2018-12-26T05:05:38.928Z,0.00
2018-12-26T05:06:38.916Z,0.00
2018-12-26T05:07:38.909Z,0.00
2018-12-26T05:08:38.922Z,0.00
2018-12-26T05:09:38.900Z,0.00
2018-12-26T05:10:38.885Z,0.00
2018-12-26T05:11:38.858Z,0.00
2018-12-26T05:12:38.859Z,0.00
2018-12-26T05:13:38.828Z,0.00
2018-12-26T05:14:38.857Z,0.00
2018-12-26T05:15:38.838Z,0.00
2018-12-26T05:16:38.854Z,0.00
2018-12-26T05:17:38.794Z,0.00
2018-12-26T05:18:38.817Z,0.00
2018-12-26T05:19:38.774Z,0.00
2018-12-26T05:20:39.251Z,0.00
2018-12-26T05:21:38.765Z,0.00
2018-12-26T05:22:38.758Z,0.00
2018-12-26T05:23:38.748Z,0.00
2018-12-26T05:24:38.734Z,0.00
2018-12-26T05:25:38.771Z,0.00
2018-12-26T05:26:38.743Z,0.00
2018-12-26T05:27:38.809Z,0.00
2018-12-26T05:28:38.692Z,0.00
2018-12-26T05:29:38.707Z,0.00
2018-12-26T05:30:38.704Z,0.00
2018-12-26T05:31:38.716Z,0.00
2018-12-26T05:32:39.112Z,0.00
2018-12-26T05:33:38.650Z,0.00
2018-12-26T05:34:38.650Z,0.00
2018-12-26T05:35:38.630Z,0.00
2018-12-26T05:36:38.600Z,0.00
2018-12-26T05:37:38.717Z,0.00
2018-12-26T05:38:38.579Z,0.00
2018-12-26T05:39:39.179Z,0.00
2018-12-26T05:40:38.564Z,0.00
2018-12-26T05:41:38.626Z,0.00
2018-12-26T05:42:38.526Z,0.00
2018-12-26T05:43:38.569Z,0.00
2018-12-26T05:44:38.510Z,0.00
2018-12-26T05:45:38.583Z,0.00
2018-12-26T05:46:38.484Z,0.00
2018-12-26T05:47:38.619Z,0.00
2018-12-26T05:48:38.487Z,0.00
2018-12-26T05:49:38.485Z,0.00
2018-12-26T05:50:38.519Z,0.00
2018-12-26T05:51:38.466Z,0.00
2018-12-26T05:52:38.409Z,0.00
2018-12-26T05:53:38.448Z,0.00
2018-12-26T05:54:38.419Z,0.00
2018-12-26T05:55:38.418Z,0.00
2018-12-26T05:56:38.373Z,0.00
2018-12-26T05:57:42.810Z,0.00
2018-12-26T05:58:38.412Z,0.00
2018-12-26T05:59:38.391Z,0.00
2018-12-26T06:00:38.357Z,0.00
2018-12-26T06:01:38.351Z,0.00
2018-12-26T06:02:38.389Z,0.00
2018-12-26T06:03:38.398Z,0.00
2018-12-26T06:04:38.359Z,0.00
2018-12-26T06:05:38.306Z,0.00
2018-12-26T06:06:38.334Z,0.00
2018-12-26T06:07:38.293Z,0.00
2018-12-26T06:08:38.253Z,0.00
2018-12-26T06:09:38.324Z,0.00
2018-12-26T06:10:38.243Z,0.00
2018-12-26T06:11:38.224Z,0.00
2018-12-26T06:12:38.219Z,0.00
2018-12-26T06:13:38.262Z,0.00
2018-12-26T06:14:38.183Z,0.00
2018-12-26T06:15:38.713Z,0.00
2018-12-26T06:16:38.176Z,0.00
2018-12-26T06:17:38.153Z,0.00
2018-12-26T06:18:38.131Z,0.00
2018-12-26T06:19:38.952Z,0.00
2018-12-26T06:20:38.133Z,0.00
2018-12-26T06:21:38.120Z,0.00
2018-12-26T06:22:38.082Z,0.00
2018-12-26T06:23:39.111Z,0.00
2018-12-26T06:24:38.065Z,0.00
2018-12-26T06:25:38.255Z,0.00
2018-12-26T06:26:38.176Z,0.00
2018-12-26T06:27:38.041Z,0.00
2018-12-26T06:28:38.054Z,0.00
2018-12-26T06:29:38.017Z,0.00
2018-12-26T06:30:38.021Z,0.00
2018-12-26T06:31:38.723Z,0.00
2018-12-26T06:32:37.979Z,0.00
2018-12-26T06:33:37.974Z,0.00
2018-12-26T06:34:37.963Z,0.00
2018-12-26T06:35:39.115Z,0.00
2018-12-26T06:36:37.972Z,0.00
2018-12-26T06:37:37.982Z,0.00
2018-12-26T06:38:37.922Z,0.00
2018-12-26T06:39:37.923Z,0.00
2018-12-26T06:40:37.924Z,0.00
2018-12-26T06:41:37.902Z,0.00
2018-12-26T06:42:38.729Z,0.00
2018-12-26T06:43:37.885Z,0.00
2018-12-26T06:44:37.905Z,0.00
2018-12-26T06:45:37.841Z,0.00
2018-12-26T06:46:37.886Z,0.00
2018-12-26T06:47:37.872Z,0.00
2018-12-26T06:48:37.803Z,0.00
2018-12-26T06:49:37.788Z,0.00
2018-12-26T06:50:37.779Z,0.00
2018-12-26T06:51:37.822Z,0.00
2018-12-26T06:52:38.698Z,0.00
2018-12-26T06:53:37.891Z,0.00
2018-12-26T06:54:37.786Z,0.00
2018-12-26T06:55:37.747Z,0.00
2018-12-26T06:56:37.755Z,0.00
2018-12-26T06:57:37.741Z,0.00
2018-12-26T06:58:37.740Z,0.00
2018-12-26T06:59:37.754Z,0.00
2018-12-26T07:00:37.866Z,0.00
2018-12-26T07:01:37.670Z,0.00
2018-12-26T07:02:37.652Z,0.00
2018-12-26T07:03:37.689Z,0.00
2018-12-26T07:04:37.644Z,0.00
2018-12-26T07:05:37.668Z,0.00
2018-12-26T07:06:37.625Z,0.00
2018-12-26T07:07:37.606Z,0.00
2018-12-26T07:08:37.628Z,0.00
2018-12-26T07:11:28.249Z,0.00
2018-12-26T07:12:37.649Z,0.00
2018-12-26T07:13:36.666Z,0.00
2018-12-26T07:14:28.209Z,0.00
2018-12-26T07:15:37.770Z,0.00
2018-12-26T07:16:28.164Z,0.00
2018-12-26T07:17:29.681Z,0.00
2018-12-26T07:18:28.165Z,0.00
2018-12-26T07:19:28.174Z,0.00
2018-12-26T07:20:28.117Z,0.00
2018-12-26T07:21:28.121Z,0.00
2018-12-26T07:22:35.778Z,0.00
2018-12-26T07:23:28.120Z,0.00
2018-12-26T07:24:28.146Z,0.00
2018-12-26T07:25:28.078Z,0.00
2018-12-26T07:26:28.125Z,0.00
2018-12-26T07:27:28.123Z,0.00
2018-12-26T07:28:28.117Z,0.00
2018-12-26T07:29:28.133Z,0.00
2018-12-26T07:30:28.078Z,0.00
2018-12-26T07:31:28.100Z,0.00
2018-12-26T07:32:28.157Z,0.00
2018-12-26T07:33:28.022Z,0.00
2018-12-26T07:34:28.032Z,0.00
2018-12-26T07:35:28.019Z,5.62
2018-12-26T07:36:27.978Z,5.62
2018-12-26T07:37:28.015Z,5.62
2018-12-26T07:38:27.970Z,5.62
2018-12-26T07:39:27.966Z,5.62
2018-12-26T07:40:27.916Z,5.62
2018-12-26T07:41:27.911Z,5.62
2018-12-26T07:42:27.946Z,5.62
2018-12-26T07:43:27.909Z,5.62
2018-12-26T07:44:27.883Z,5.62
2018-12-26T07:45:27.881Z,5.62
2018-12-26T07:46:27.888Z,5.62
2018-12-26T07:47:27.875Z,5.62
2018-12-26T07:48:28.989Z,5.62
2018-12-26T07:49:27.840Z,5.62
2018-12-26T07:50:27.816Z,5.62
2018-12-26T07:51:27.874Z,5.62
2018-12-26T07:52:30.562Z,11.25
2018-12-26T07:53:27.826Z,16.88
2018-12-26T07:54:27.793Z,16.88
2018-12-26T07:55:27.772Z,11.25
2018-12-26T07:56:27.856Z,11.25
2018-12-26T07:57:27.813Z,11.25
2018-12-26T07:58:27.810Z,11.25
2018-12-26T07:59:27.803Z,11.25
2018-12-26T08:00:27.770Z,11.25
2018-12-26T08:01:27.742Z,11.25
2018-12-26T08:02:27.732Z,11.25
2018-12-26T08:03:27.869Z,11.25
2018-12-26T08:04:27.719Z,11.25
2018-12-26T08:05:27.710Z,16.88
2018-12-26T08:06:27.654Z,16.88
2018-12-26T08:07:27.659Z,11.25
2018-12-26T08:08:27.681Z,16.88
2018-12-26T08:09:28.373Z,16.88
2018-12-26T08:10:27.653Z,16.88
2018-12-26T08:11:27.672Z,16.88
2018-12-26T08:12:27.587Z,16.88
2018-12-26T08:13:27.710Z,16.88
2018-12-26T08:14:27.619Z,22.50
2018-12-26T08:15:28.642Z,28.12
2018-12-26T08:17:49.482Z,22.50
2018-12-26T08:20:13.784Z,39.38
2018-12-26T08:22:35.183Z,33.75
2018-12-26T08:23:35.159Z,28.12
2018-12-26T08:24:35.193Z,28.12
2018-12-26T08:25:35.964Z,28.12
2018-12-26T08:26:36.318Z,33.75
2018-12-26T08:27:36.393Z,33.75
2018-12-26T08:28:37.283Z,39.38
2018-12-26T08:29:36.990Z,28.12
2018-12-26T08:30:35.425Z,45.00
2018-12-26T08:31:43.265Z,33.75
2018-12-26T08:32:35.068Z,28.12
2018-12-26T08:33:35.065Z,28.12
2018-12-26T08:34:35.017Z,28.12
2018-12-26T08:35:35.002Z,33.75
2018-12-26T08:36:34.991Z,33.75
2018-12-26T08:37:34.978Z,28.12
2018-12-26T08:38:34.987Z,39.38
2018-12-26T08:39:34.968Z,50.62
2018-12-26T08:40:34.936Z,39.38
2018-12-26T08:41:34.924Z,45.00
2018-12-26T08:42:34.932Z,45.00
2018-12-26T08:43:35.037Z,45.00
2018-12-26T08:44:34.888Z,45.00
2018-12-26T08:45:34.889Z,39.38
2018-12-26T08:46:34.898Z,39.38
2018-12-26T08:47:34.864Z,50.62
2018-12-26T08:48:34.889Z,45.00
2018-12-26T08:49:34.881Z,50.62
2018-12-26T08:50:34.825Z,50.62
2018-12-26T08:51:34.844Z,50.62
2018-12-26T08:52:34.816Z,50.62
2018-12-26T08:53:34.796Z,56.25
2018-12-26T08:54:34.799Z,50.62
2018-12-26T08:55:34.797Z,56.25
2018-12-26T08:56:34.862Z,50.62
2018-12-26T08:57:34.777Z,56.25
2018-12-26T08:58:35.243Z,39.38
2018-12-26T08:59:34.747Z,39.38
2018-12-26T09:00:34.748Z,39.38
2018-12-26T09:01:34.729Z,50.62
2018-12-26T09:02:34.744Z,45.00
2018-12-26T09:03:34.705Z,45.00
2018-12-26T09:04:34.686Z,39.38
2018-12-26T09:05:34.742Z,45.00
2018-12-26T09:06:34.698Z,45.00
2018-12-26T09:07:34.667Z,45.00
2018-12-26T09:08:34.638Z,45.00
2018-12-26T09:09:34.655Z,45.00
2018-12-26T09:10:34.826Z,45.00
2018-12-26T09:11:34.626Z,45.00
2018-12-26T09:12:34.591Z,45.00
2018-12-26T09:13:34.606Z,45.00
2018-12-26T09:14:34.584Z,50.62
2018-12-26T09:15:34.606Z,50.62
2018-12-26T09:16:34.613Z,45.00
2018-12-26T09:17:34.564Z,45.00
2018-12-26T09:18:34.573Z,50.62
2018-12-26T09:19:34.562Z,56.25
2018-12-26T09:20:34.610Z,56.25
2018-12-26T09:21:34.535Z,45.00
2018-12-26T09:22:34.503Z,39.38
2018-12-26T09:23:34.491Z,50.62
2018-12-26T09:24:34.493Z,50.62
2018-12-26T09:25:34.486Z,56.25
2018-12-26T09:26:34.458Z,56.25
2018-12-26T09:27:34.457Z,50.62
2018-12-26T09:28:34.475Z,50.62
2018-12-26T09:29:34.515Z,45.00
2018-12-26T09:30:34.415Z,61.88
2018-12-26T09:31:34.399Z,61.88
2018-12-26T09:32:34.385Z,61.88
2018-12-26T09:33:34.390Z,56.25
2018-12-26T09:34:34.374Z,61.88
2018-12-26T09:35:34.360Z,67.50
2018-12-26T09:36:34.340Z,67.50
2018-12-26T09:37:34.334Z,67.50
2018-12-26T09:38:34.335Z,67.50
2018-12-26T09:39:34.354Z,67.50
2018-12-26T09:40:34.357Z,61.88
2018-12-26T09:41:34.317Z,61.88
2018-12-26T09:42:34.343Z,67.50
2018-12-26T09:43:34.349Z,73.12
2018-12-26T09:44:34.263Z,95.62
2018-12-26T09:45:34.312Z,73.12
2018-12-26T09:46:34.253Z,67.50
2018-12-26T09:47:34.223Z,67.50
2018-12-26T09:48:34.220Z,67.50
2018-12-26T09:49:34.204Z,78.75
2018-12-26T09:50:34.209Z,78.75
2018-12-26T09:51:34.209Z,67.50
2018-12-26T09:52:34.212Z,67.50
2018-12-26T09:53:34.176Z,67.50
2018-12-26T09:54:34.154Z,73.12
2018-12-26T09:55:34.157Z,78.75
2018-12-26T09:56:34.176Z,78.75
2018-12-26T09:57:34.129Z,84.38
2018-12-26T09:58:34.139Z,90.00
2018-12-26T09:59:34.091Z,73.12
2018-12-26T10:00:34.159Z,78.75
2018-12-26T10:01:34.108Z,67.50
2018-12-26T10:02:34.094Z,61.88
2018-12-26T10:03:34.051Z,78.75
2018-12-26T10:04:34.027Z,90.00
2018-12-26T10:05:34.027Z,118.12
2018-12-26T10:06:34.010Z,95.62
2018-12-26T10:07:34.057Z,101.25
2018-12-26T10:08:33.995Z,95.62
2018-12-26T10:09:33.978Z,90.00
2018-12-26T10:10:33.982Z,73.12
2018-12-26T10:11:33.970Z,78.75
2018-12-26T10:12:33.958Z,67.50
2018-12-26T10:13:33.966Z,56.25
2018-12-26T10:14:33.937Z,73.12
2018-12-26T10:15:33.928Z,84.38
2018-12-26T10:16:33.912Z,73.12
2018-12-26T10:17:33.912Z,67.50
2018-12-26T10:18:33.922Z,73.12
2018-12-26T10:19:33.899Z,67.50
2018-12-26T10:20:33.875Z,73.12
2018-12-26T10:21:33.906Z,56.25
2018-12-26T10:22:33.853Z,78.75
2018-12-26T10:23:33.852Z,73.12
2018-12-26T10:24:33.862Z,90.00
2018-12-26T10:25:33.843Z,78.75
2018-12-26T10:26:33.804Z,73.12
2018-12-26T10:27:33.808Z,67.50
2018-12-26T10:28:33.817Z,78.75
2018-12-26T10:29:33.775Z,78.75
2018-12-26T10:30:33.773Z,67.50
2018-12-26T10:31:33.762Z,61.88
2018-12-26T10:32:33.757Z,67.50
2018-12-26T10:33:33.765Z,78.75
2018-12-26T10:34:33.728Z,73.12
2018-12-26T10:35:33.774Z,73.12
2018-12-26T10:36:33.734Z,73.12
2018-12-26T10:37:33.693Z,67.50
2018-12-26T10:38:33.729Z,73.12
2018-12-26T10:39:33.754Z,61.88
2018-12-26T10:40:33.676Z,78.75
2018-12-26T10:41:33.655Z,84.38
2018-12-26T10:42:33.683Z,78.75
2018-12-26T10:43:33.631Z,78.75
2018-12-26T10:44:33.623Z,67.50
2018-12-26T10:45:33.604Z,61.88
2018-12-26T10:46:33.608Z,67.50
2018-12-26T10:47:33.585Z,84.38
2018-12-26T10:48:33.632Z,101.25
2018-12-26T10:49:33.571Z,84.38
2018-12-26T10:50:33.559Z,73.12
2018-12-26T10:51:33.598Z,67.50
2018-12-26T10:52:33.550Z,61.88
2018-12-26T10:53:33.529Z,61.88
2018-12-26T10:54:33.515Z,67.50
2018-12-26T10:55:33.516Z,90.00
2018-12-26T10:56:33.477Z,106.88
2018-12-26T10:57:33.480Z,123.75
2018-12-26T10:58:33.451Z,106.88
2018-12-26T10:59:33.476Z,101.25
2018-12-26T11:00:33.556Z,90.00
2018-12-26T11:01:33.446Z,90.00
2018-12-26T11:02:33.424Z,73.12
2018-12-26T11:03:33.415Z,84.38
2018-12-26T11:04:33.457Z,90.00
2018-12-26T11:05:33.391Z,78.75
2018-12-26T11:06:33.368Z,78.75
2018-12-26T11:07:33.388Z,84.38
2018-12-26T11:08:33.353Z,84.38
2018-12-26T11:09:33.355Z,78.75
2018-12-26T11:10:42.313Z,73.12
2018-12-26T11:11:33.378Z,73.12
2018-12-26T11:12:42.902Z,61.88
2018-12-26T11:13:42.359Z,50.62
2018-12-26T11:14:42.920Z,67.50
2018-12-26T11:15:42.444Z,78.75
2018-12-26T11:16:40.983Z,118.12
2018-12-26T11:17:33.279Z,90.00
2018-12-26T11:18:33.257Z,84.38
2018-12-26T11:19:33.230Z,73.12
2018-12-26T11:20:33.252Z,73.12
2018-12-26T11:21:33.259Z,67.50
2018-12-26T11:22:33.205Z,73.12
2018-12-26T11:23:33.189Z,78.75
2018-12-26T11:24:33.207Z,73.12
2018-12-26T11:25:33.174Z,73.12
2018-12-26T11:26:33.227Z,73.12
2018-12-26T11:27:33.176Z,67.50
2018-12-26T11:28:33.169Z,50.62
2018-12-26T11:29:33.146Z,56.25
2018-12-26T11:30:33.123Z,56.25
2018-12-26T11:31:33.126Z,67.50
2018-12-26T11:32:33.151Z,61.88
2018-12-26T11:33:33.098Z,56.25
2018-12-26T11:34:33.140Z,45.00
2018-12-26T11:35:33.069Z,50.62
2018-12-26T11:36:33.077Z,56.25
2018-12-26T11:37:33.122Z,50.62
2018-12-26T11:38:33.064Z,50.62
2018-12-26T11:39:33.039Z,56.25
2018-12-26T11:40:33.054Z,50.62
2018-12-26T11:41:33.005Z,56.25
2018-12-26T11:42:33.018Z,56.25
2018-12-26T11:43:33.006Z,50.62
2018-12-26T11:44:33.026Z,45.00
2018-12-26T11:45:33.001Z,50.62
2018-12-26T11:46:32.996Z,50.62
2018-12-26T11:47:33.001Z,56.25
2018-12-26T11:48:32.941Z,56.25
2018-12-26T11:49:32.937Z,56.25
2018-12-26T11:50:32.931Z,50.62
2018-12-26T11:51:32.917Z,56.25
2018-12-26T11:52:32.957Z,56.25
2018-12-26T11:53:32.946Z,50.62
2018-12-26T11:54:32.885Z,61.88
2018-12-26T11:55:32.882Z,56.25
2018-12-26T11:56:32.858Z,50.62
2018-12-26T11:57:32.873Z,56.25
2018-12-26T11:58:32.877Z,56.25
2018-12-26T11:59:32.848Z,56.25
2018-12-26T12:00:32.836Z,61.88
2018-12-26T12:01:32.816Z,50.62
2018-12-26T12:02:32.835Z,50.62
2018-12-26T12:03:32.800Z,39.38
2018-12-26T12:04:32.839Z,39.38
2018-12-26T12:05:32.758Z,45.00
2018-12-26T12:06:32.756Z,45.00
2018-12-26T12:07:32.824Z,45.00
2018-12-26T12:08:32.747Z,56.25
2018-12-26T12:09:32.725Z,56.25
2018-12-26T12:10:32.735Z,56.25
2018-12-26T12:11:32.697Z,56.25
2018-12-26T12:12:32.725Z,45.00
2018-12-26T12:13:32.692Z,45.00
2018-12-26T12:14:32.683Z,45.00
2018-12-26T12:15:32.674Z,45.00
2018-12-26T12:16:32.646Z,56.25
2018-12-26T12:17:32.683Z,61.88
2018-12-26T12:18:32.670Z,61.88
2018-12-26T12:19:32.634Z,56.25
2018-12-26T12:20:32.651Z,56.25
2018-12-26T12:21:32.600Z,50.62
2018-12-26T12:22:32.619Z,50.62
2018-12-26T12:23:32.595Z,56.25
2018-12-26T12:24:32.572Z,56.25
2018-12-26T12:25:32.579Z,50.62
2018-12-26T12:26:32.560Z,56.25
2018-12-26T12:27:32.606Z,56.25
2018-12-26T12:28:32.558Z,50.62
2018-12-26T12:29:36.077Z,45.00
2018-12-26T12:30:32.520Z,50.62
2018-12-26T12:31:32.491Z,50.62
2018-12-26T12:32:32.538Z,56.25
2018-12-26T12:33:32.596Z,50.62
2018-12-26T12:34:32.652Z,61.88
2018-12-26T12:35:32.488Z,50.62
2018-12-26T12:36:32.452Z,50.62
2018-12-26T12:37:32.470Z,56.25
2018-12-26T12:38:32.548Z,50.62
2018-12-26T12:39:32.442Z,45.00
2018-12-26T12:40:32.441Z,39.38
2018-12-26T12:41:32.396Z,39.38
2018-12-26T12:42:32.390Z,39.38
2018-12-26T12:43:32.420Z,39.38
2018-12-26T12:44:32.414Z,45.00
2018-12-26T12:45:32.386Z,50.62
2018-12-26T12:46:32.363Z,39.38
2018-12-26T12:47:32.331Z,39.38
2018-12-26T12:48:32.309Z,50.62
2018-12-26T12:49:32.356Z,45.00
2018-12-26T12:50:32.387Z,45.00
2018-12-26T12:51:32.301Z,45.00
2018-12-26T12:52:32.286Z,39.38
2018-12-26T12:53:32.272Z,39.38
2018-12-26T12:54:32.276Z,39.38
2018-12-26T12:55:32.238Z,39.38
2018-12-26T12:56:32.264Z,39.38
2018-12-26T12:57:32.256Z,39.38
2018-12-26T12:58:32.223Z,33.75
2018-12-26T12:59:32.212Z,33.75
2018-12-26T13:00:32.254Z,33.75
2018-12-26T13:01:32.183Z,33.75
2018-12-26T13:02:32.161Z,28.12
2018-12-26T13:03:32.199Z,28.12
2018-12-26T13:04:32.141Z,28.12
2018-12-26T13:05:32.139Z,28.12
2018-12-26T13:06:32.164Z,22.50
2018-12-26T13:07:32.144Z,28.12
2018-12-26T13:08:32.114Z,28.12
2018-12-26T13:09:32.097Z,28.12
2018-12-26T13:10:32.068Z,22.50
2018-12-26T13:11:32.131Z,22.50
2018-12-26T13:12:32.052Z,28.12
2018-12-26T13:13:32.057Z,22.50
2018-12-26T13:14:32.071Z,22.50
2018-12-26T13:15:32.066Z,22.50
2018-12-26T13:16:32.041Z,22.50